createdAt,value
2023-04-30T00:00:30.651Z,3.77
2023-04-30T00:03:33.888Z,3.50
2023-04-30T00:06:37.106Z,3.53
2023-04-30T00:09:41.651Z,4.07
2023-04-30T00:12:44.788Z,3.20
2023-04-30T00:15:47.973Z,3.93
2023-04-30T00:18:51.126Z,3.50
2023-04-30T00:21:54.162Z,3.23
2023-04-30T00:24:58.654Z,3.47
2023-04-30T00:28:01.798Z,3.30
2023-04-30T00:31:06.990Z,3.13
2023-04-30T00:34:10.152Z,3.17
2023-04-30T00:37:13.247Z,3.87
2023-04-30T00:40:17.878Z,3.60
2023-04-30T00:43:20.968Z,3.93
2023-04-30T00:46:24.167Z,3.50
2023-04-30T00:49:27.612Z,3.17
2023-04-30T00:52:31.309Z,3.27
2023-04-30T00:55:35.844Z,3.57
2023-04-30T00:58:39.016Z,4.17
2023-04-30T01:01:43.164Z,3.47
2023-04-30T01:04:47.622Z,3.23
2023-04-30T01:07:51.706Z,3.73
2023-04-30T01:11:13.658Z,3.30
2023-04-30T01:14:26.483Z,3.70
2023-04-30T01:17:35.552Z,3.93
2023-04-30T01:20:45.103Z,3.40
2023-04-30T01:24:16.767Z,4.40
2023-04-30T01:27:41.565Z,4.57
2023-04-30T01:30:46.333Z,3.43
2023-04-30T01:33:49.417Z,3.53
2023-04-30T01:37:07.055Z,3.60
2023-04-30T01:40:23.226Z,3.97
2023-04-30T01:43:35.124Z,4.10
2023-04-30T01:46:39.806Z,4.00
2023-04-30T01:49:58.043Z,4.60
2023-04-30T01:53:03.281Z,5.10
2023-04-30T01:56:10.803Z,4.73
2023-04-30T01:59:15.966Z,5.00
2023-04-30T02:02:20.726Z,4.30
2023-04-30T02:05:23.948Z,4.97
2023-04-30T02:08:27.265Z,4.83
2023-04-30T02:11:30.567Z,4.27
2023-04-30T02:14:33.682Z,3.77
2023-04-30T02:17:38.250Z,2.93
2023-04-30T02:20:41.459Z,4.30
2023-04-30T02:23:44.561Z,3.80
2023-04-30T02:26:47.681Z,3.20
2023-04-30T02:29:51.027Z,3.30
2023-04-30T02:32:55.618Z,3.90
2023-04-30T02:36:00.653Z,4.13
2023-04-30T02:39:03.866Z,3.93
2023-04-30T02:42:07.715Z,4.37
2023-04-30T02:45:11.215Z,3.90
2023-04-30T02:48:16.957Z,3.83
2023-04-30T02:51:20.098Z,4.07
2023-04-30T02:54:23.184Z,3.93
2023-04-30T02:57:26.464Z,3.70
2023-04-30T03:00:29.632Z,3.50
2023-04-30T03:03:34.678Z,3.53
2023-04-30T03:06:38.030Z,3.73
2023-04-30T03:09:41.283Z,3.23
2023-04-30T03:12:44.345Z,4.00
2023-04-30T03:15:47.447Z,3.30
2023-04-30T03:18:51.932Z,3.17
2023-04-30T03:21:55.713Z,3.97
2023-04-30T03:24:59.012Z,3.67
2023-04-30T03:28:04.973Z,4.17
2023-04-30T03:31:08.115Z,4.07
2023-04-30T03:34:12.595Z,3.30
2023-04-30T03:37:15.698Z,3.77
2023-04-30T03:40:18.960Z,3.63
2023-04-30T03:43:22.705Z,3.73
2023-04-30T03:46:26.350Z,3.83
2023-04-30T03:49:30.821Z,3.33
2023-04-30T03:52:33.969Z,3.13
2023-04-30T03:55:37.168Z,3.03
2023-04-30T03:58:40.499Z,3.40
2023-04-30T04:01:43.597Z,3.07
2023-04-30T04:04:48.248Z,3.67
2023-04-30T04:07:51.369Z,2.70
2023-04-30T04:10:54.641Z,3.20
2023-04-30T04:13:57.791Z,3.43
2023-04-30T04:17:01.380Z,3.80
2023-04-30T04:20:07.725Z,3.40
2023-04-30T04:23:11.274Z,3.37
2023-04-30T04:26:15.073Z,3.03
2023-04-30T04:29:18.227Z,3.07
2023-04-30T04:32:22.814Z,4.00
2023-04-30T04:35:27.478Z,3.30
2023-04-30T04:38:30.722Z,3.17
2023-04-30T04:41:35.157Z,2.80
2023-04-30T04:44:39.425Z,3.23
2023-04-30T04:47:42.626Z,3.20
2023-04-30T04:50:47.136Z,3.47
2023-04-30T04:53:50.244Z,3.57
2023-04-30T04:56:53.345Z,3.73
2023-04-30T04:59:56.960Z,3.60
2023-04-30T05:03:00.433Z,3.13
2023-04-30T05:06:05.086Z,2.67
2023-04-30T05:09:09.653Z,3.20
2023-04-30T05:12:12.747Z,2.90
2023-04-30T05:15:15.911Z,3.20
2023-04-30T05:18:19.120Z,3.00
2023-04-30T05:21:23.606Z,2.50
2023-04-30T05:24:26.814Z,3.30
2023-04-30T05:27:29.876Z,2.37
2023-04-30T05:30:33.411Z,2.53
2023-04-30T05:33:37.191Z,3.00
2023-04-30T05:36:43.121Z,3.70
2023-04-30T05:39:47.318Z,3.40
2023-04-30T05:42:50.480Z,3.80
2023-04-30T05:45:53.693Z,3.53
2023-04-30T05:48:56.935Z,3.57
2023-04-30T05:52:01.714Z,3.33
2023-04-30T05:55:04.909Z,4.00
2023-04-30T05:58:08.026Z,3.10
2023-04-30T06:01:11.286Z,3.20
2023-04-30T06:04:14.444Z,3.60
2023-04-30T06:07:18.952Z,3.50
2023-04-30T06:10:22.215Z,3.50
2023-04-30T06:13:25.316Z,3.70
2023-04-30T06:16:28.699Z,4.10
2023-04-30T06:19:31.826Z,3.50
2023-04-30T06:22:36.288Z,3.97
2023-04-30T06:25:40.012Z,4.00
2023-04-30T06:28:43.339Z,4.07
2023-04-30T06:31:46.526Z,4.70
2023-04-30T06:34:49.645Z,4.30
2023-04-30T06:37:54.129Z,4.90
2023-04-30T06:40:57.251Z,4.23
2023-04-30T06:44:00.353Z,4.77
2023-04-30T06:47:03.523Z,4.60
2023-04-30T06:50:07.529Z,4.10
2023-04-30T06:53:12.212Z,4.03
2023-04-30T06:56:15.356Z,4.30
2023-04-30T06:59:18.953Z,4.80
2023-04-30T07:02:22.546Z,4.73
2023-04-30T07:05:25.794Z,4.40
2023-04-30T07:08:30.301Z,4.00
2023-04-30T07:11:33.390Z,5.03
2023-04-30T07:14:36.506Z,4.50
2023-04-30T07:17:41.829Z,4.03
2023-04-30T07:20:45.623Z,4.67
2023-04-30T07:23:51.658Z,4.57
2023-04-30T07:26:54.807Z,4.70
2023-04-30T07:29:57.982Z,4.30
2023-04-30T07:33:01.196Z,4.73
2023-04-30T07:36:04.590Z,4.73
2023-04-30T07:39:09.703Z,4.17
2023-04-30T07:42:12.852Z,5.73
2023-04-30T07:45:15.982Z,6.07
2023-04-30T07:48:19.109Z,4.70
2023-04-30T07:51:22.201Z,3.57
2023-04-30T07:54:27.034Z,5.20
2023-04-30T07:57:30.200Z,5.20
2023-04-30T08:00:33.351Z,4.70
2023-04-30T08:03:36.755Z,4.57
2023-04-30T08:06:40.116Z,4.83
2023-04-30T08:09:44.624Z,5.20
2023-04-30T08:12:47.900Z,4.67
2023-04-30T08:15:50.985Z,5.27
2023-04-30T08:18:54.132Z,4.80
2023-04-30T08:21:57.317Z,4.20
2023-04-30T08:25:02.563Z,5.33
2023-04-30T08:28:05.881Z,4.40
2023-04-30T08:31:09.152Z,4.03
2023-04-30T08:34:12.228Z,4.40
2023-04-30T08:37:15.909Z,3.83
2023-04-30T08:40:23.536Z,5.10
2023-04-30T08:43:29.266Z,5.07
2023-04-30T08:46:35.554Z,4.73
2023-04-30T08:49:38.979Z,4.53
2023-04-30T08:52:44.898Z,4.27
2023-04-30T08:55:49.517Z,5.33
2023-04-30T08:58:52.701Z,4.20
2023-04-30T09:01:58.749Z,4.77
2023-04-30T09:05:01.947Z,4.37
2023-04-30T09:08:05.696Z,4.70
2023-04-30T09:11:23.053Z,4.60
2023-04-30T09:14:27.517Z,4.30
2023-04-30T09:17:31.234Z,4.53
2023-04-30T09:20:34.525Z,3.80
2023-04-30T09:23:37.765Z,4.80
2023-04-30T09:26:42.294Z,4.37
2023-04-30T09:29:46.316Z,4.73
2023-04-30T09:32:57.331Z,5.40
2023-04-30T09:36:11.212Z,4.33
2023-04-30T09:39:17.516Z,4.50
2023-04-30T09:42:22.696Z,5.07
2023-04-30T09:45:25.793Z,4.63
2023-04-30T09:48:29.443Z,4.77
2023-04-30T09:51:32.782Z,4.27
2023-04-30T09:54:36.975Z,3.67
2023-04-30T09:57:41.649Z,4.53
2023-04-30T10:00:46.345Z,3.60
2023-04-30T10:03:50.706Z,3.83
2023-04-30T10:06:56.039Z,4.70
2023-04-30T10:10:04.982Z,4.20
2023-04-30T10:13:15.947Z,4.77
2023-04-30T10:16:30.032Z,4.80
2023-04-30T10:19:37.500Z,4.33
2023-04-30T10:22:43.754Z,4.13
2023-04-30T10:25:47.488Z,4.13
2023-04-30T10:28:53.642Z,3.63
2023-04-30T10:31:56.986Z,3.70
2023-04-30T10:35:11.044Z,3.27
2023-04-30T10:38:19.760Z,3.37
2023-04-30T10:41:23.460Z,4.20
2023-04-30T10:44:27.936Z,3.93
2023-04-30T10:47:31.958Z,4.07
2023-04-30T10:50:42.403Z,3.80
2023-04-30T10:53:47.202Z,4.33
2023-04-30T10:56:52.776Z,4.20
2023-04-30T11:00:21.408Z,3.63
2023-04-30T11:03:25.142Z,4.77
2023-04-30T11:06:50.189Z,4.30
2023-04-30T11:09:58.566Z,4.83
2023-04-30T11:13:06.010Z,4.87
2023-04-30T11:16:10.950Z,3.70
2023-04-30T11:19:15.578Z,4.20
2023-04-30T11:22:20.843Z,4.20
2023-04-30T11:25:24.022Z,4.07
2023-04-30T11:28:28.721Z,4.43
2023-04-30T11:31:35.963Z,4.43
2023-04-30T11:34:39.382Z,4.20
2023-04-30T11:37:44.478Z,4.17
2023-04-30T11:40:49.723Z,3.90
2023-04-30T11:43:52.753Z,4.40
2023-04-30T11:46:57.336Z,3.97
2023-04-30T11:50:00.414Z,3.93
2023-04-30T11:53:05.565Z,3.80
2023-04-30T11:56:09.449Z,4.00
2023-04-30T11:59:12.689Z,3.70
2023-04-30T12:02:18.716Z,3.47
2023-04-30T12:05:23.666Z,3.70
2023-04-30T12:08:26.759Z,3.77
2023-04-30T12:11:31.550Z,3.50
2023-04-30T12:14:36.673Z,3.40
2023-04-30T12:17:41.276Z,4.00
2023-04-30T12:20:44.845Z,3.80
2023-04-30T12:23:48.306Z,4.10
2023-04-30T12:26:55.033Z,4.00
2023-04-30T12:29:58.140Z,3.90
2023-04-30T12:33:03.758Z,3.60
2023-04-30T12:36:12.069Z,3.93
2023-04-30T12:39:16.817Z,3.90
2023-04-30T12:42:21.013Z,3.70
2023-04-30T12:45:46.798Z,3.20
2023-04-30T12:48:51.487Z,3.57
2023-04-30T12:51:59.956Z,3.83
2023-04-30T12:55:16.821Z,3.97
2023-04-30T12:58:20.081Z,3.20
2023-04-30T13:01:24.399Z,4.07
2023-04-30T13:04:29.657Z,3.57
2023-04-30T13:07:39.852Z,4.23
2023-04-30T13:10:43.068Z,3.73
2023-04-30T13:13:46.114Z,3.30
2023-04-30T13:16:49.518Z,3.53
2023-04-30T13:19:54.177Z,3.33
2023-04-30T13:22:57.570Z,3.63
2023-04-30T13:26:00.696Z,3.20
2023-04-30T13:29:04.218Z,3.57
2023-04-30T13:32:07.324Z,3.03
2023-04-30T13:35:12.603Z,3.43
2023-04-30T13:38:15.733Z,2.70
2023-04-30T13:41:18.787Z,2.67
2023-04-30T13:44:21.822Z,3.07
2023-04-30T13:47:24.949Z,4.03
2023-04-30T13:50:29.996Z,2.90
2023-04-30T13:53:33.119Z,3.57
2023-04-30T13:56:36.462Z,2.73
2023-04-30T13:59:39.712Z,3.23
2023-04-30T14:02:43.033Z,2.80
2023-04-30T14:05:47.692Z,3.17
2023-04-30T14:08:53.550Z,2.63
2023-04-30T14:11:59.157Z,3.43
2023-04-30T14:15:02.312Z,2.57
2023-04-30T14:18:05.531Z,2.83
2023-04-30T14:21:10.071Z,2.87
2023-04-30T14:24:13.456Z,3.73
2023-04-30T14:27:16.592Z,3.10
2023-04-30T14:30:22.617Z,2.90
2023-04-30T14:33:25.838Z,2.93
2023-04-30T14:36:30.500Z,2.90
2023-04-30T14:39:33.557Z,3.13
2023-04-30T14:42:36.693Z,3.30
2023-04-30T14:45:40.008Z,2.80
2023-04-30T14:48:43.261Z,3.00
2023-04-30T14:51:47.732Z,3.10
2023-04-30T14:54:50.968Z,2.67
2023-04-30T14:57:54.358Z,2.60
2023-04-30T15:00:57.428Z,2.67
2023-04-30T15:04:00.757Z,2.83
2023-04-30T15:07:05.254Z,2.60
2023-04-30T15:10:09.571Z,2.60
2023-04-30T15:13:13.632Z,3.00
2023-04-30T15:16:16.821Z,2.80
2023-04-30T15:19:20.114Z,2.43
2023-04-30T15:22:24.916Z,2.70
2023-04-30T15:25:28.038Z,2.63
2023-04-30T15:28:31.294Z,3.50
2023-04-30T15:31:35.457Z,3.10
2023-04-30T15:34:38.542Z,3.23
2023-04-30T15:37:43.001Z,3.13
2023-04-30T15:40:46.196Z,4.37
2023-04-30T15:43:49.312Z,3.93
2023-04-30T15:46:52.833Z,4.20
2023-04-30T15:49:56.296Z,4.10
2023-04-30T15:53:01.198Z,4.27
2023-04-30T15:56:05.400Z,3.53
2023-04-30T15:59:08.668Z,3.70
2023-04-30T16:02:14.703Z,4.80
2023-04-30T16:05:19.133Z,4.07
2023-04-30T16:08:23.779Z,4.10
2023-04-30T16:11:26.981Z,3.97
2023-04-30T16:14:30.028Z,3.90
2023-04-30T16:17:33.730Z,4.37
2023-04-30T16:20:37.928Z,3.90
2023-04-30T16:23:43.133Z,4.10
2023-04-30T16:26:46.248Z,4.10
2023-04-30T16:29:52.559Z,3.37
2023-04-30T16:32:56.056Z,4.07
2023-04-30T16:35:59.448Z,4.47
2023-04-30T16:39:04.177Z,3.83
2023-04-30T16:42:07.680Z,4.30
2023-04-30T16:45:11.449Z,3.60
2023-04-30T16:48:15.339Z,4.43
2023-04-30T16:51:18.743Z,3.83
2023-04-30T16:54:23.706Z,3.50
2023-04-30T16:57:27.184Z,3.93
2023-04-30T17:00:31.097Z,3.87
2023-04-30T17:03:35.033Z,3.63
2023-04-30T17:06:38.738Z,4.33
2023-04-30T17:09:43.266Z,4.23
2023-04-30T17:12:46.483Z,4.17
2023-04-30T17:15:49.680Z,4.20
2023-04-30T17:18:52.758Z,4.53
2023-04-30T17:21:56.218Z,3.80
2023-04-30T17:25:01.947Z,4.70
2023-04-30T17:28:06.241Z,3.67
2023-04-30T17:31:09.918Z,3.77
2023-04-30T17:34:13.628Z,4.20
2023-04-30T17:37:17.769Z,3.70
2023-04-30T17:40:22.578Z,4.53
2023-04-30T17:43:26.346Z,6.60
2023-04-30T17:46:30.144Z,6.20
2023-04-30T17:49:36.041Z,6.97
2023-04-30T17:52:39.319Z,5.80
2023-04-30T17:55:44.103Z,4.70
2023-04-30T17:58:48.307Z,4.30
2023-04-30T18:01:51.963Z,3.97
2023-04-30T18:04:55.186Z,3.70
2023-04-30T18:07:58.956Z,4.63
2023-04-30T18:11:04.262Z,4.27
2023-04-30T18:14:07.642Z,3.90
2023-04-30T18:17:44.213Z,3.63
2023-04-30T18:20:47.545Z,4.13
2023-04-30T18:23:51.305Z,3.80
2023-04-30T18:26:56.450Z,4.20
2023-04-30T18:30:00.417Z,4.30
2023-04-30T18:33:04.257Z,4.77
2023-04-30T18:36:07.945Z,3.90
2023-04-30T18:39:13.000Z,4.07
2023-04-30T18:42:17.870Z,4.00
2023-04-30T18:45:21.756Z,3.50
2023-04-30T18:48:25.426Z,3.80
2023-04-30T18:51:29.785Z,4.00
2023-04-30T18:54:33.002Z,4.30
2023-04-30T18:57:39.766Z,4.67
2023-04-30T19:00:44.582Z,4.40
2023-04-30T19:03:48.197Z,4.90
2023-04-30T19:06:52.419Z,5.63
2023-04-30T19:09:57.270Z,6.23
2023-04-30T19:13:04.327Z,5.43
2023-04-30T19:16:08.683Z,6.20
2023-04-30T19:19:15.861Z,5.77
2023-04-30T19:22:19.563Z,6.03
2023-04-30T19:25:24.542Z,5.67
2023-04-30T19:28:30.004Z,8.60
2023-04-30T19:31:35.684Z,6.47
2023-04-30T19:34:40.021Z,6.50
2023-04-30T19:37:44.577Z,6.50
2023-04-30T19:40:49.963Z,5.80
2023-04-30T19:43:55.939Z,6.20
2023-04-30T19:46:59.974Z,6.57
2023-04-30T19:50:04.091Z,6.97
2023-04-30T19:53:07.715Z,6.73
2023-04-30T19:56:11.322Z,7.10
2023-04-30T19:59:18.171Z,7.77
2023-04-30T20:02:25.502Z,6.67
2023-04-30T20:05:29.549Z,6.60
2023-04-30T20:08:34.114Z,6.40
2023-04-30T20:11:37.747Z,6.30
2023-04-30T20:14:43.550Z,6.63
2023-04-30T20:17:48.165Z,7.07
2023-04-30T20:20:52.735Z,7.30
2023-04-30T20:24:00.306Z,6.90
2023-04-30T20:27:04.375Z,7.47
2023-04-30T20:30:11.503Z,6.23
2023-04-30T20:33:16.445Z,6.30
2023-04-30T20:36:21.137Z,7.20
2023-04-30T20:39:24.547Z,6.23
2023-04-30T20:42:28.641Z,6.30
2023-04-30T20:45:33.194Z,6.40
2023-04-30T20:48:36.265Z,6.10
2023-04-30T20:51:39.662Z,5.93
2023-04-30T20:54:43.207Z,6.97
2023-04-30T20:57:46.428Z,6.27
2023-04-30T21:00:51.562Z,5.97
2023-04-30T21:03:55.697Z,7.33
2023-04-30T21:06:58.896Z,7.57
2023-04-30T21:10:02.200Z,6.50
2023-04-30T21:13:06.299Z,6.97
2023-04-30T21:16:11.041Z,6.83
2023-04-30T21:19:14.134Z,6.80
2023-04-30T21:22:17.283Z,6.23
2023-04-30T21:25:20.386Z,6.53
2023-04-30T21:28:23.566Z,7.00
2023-04-30T21:31:30.784Z,6.57
2023-04-30T21:34:34.276Z,7.10
2023-04-30T21:37:37.599Z,6.53
2023-04-30T21:40:41.260Z,6.60
2023-04-30T21:43:44.524Z,6.70
2023-04-30T21:46:49.310Z,6.77
2023-04-30T21:49:52.650Z,6.90
2023-04-30T21:52:55.755Z,6.93
2023-04-30T21:55:58.806Z,7.07
2023-04-30T21:59:01.873Z,7.20
2023-04-30T22:02:16.491Z,6.57
2023-04-30T22:05:23.311Z,7.53
2023-04-30T22:08:26.504Z,6.60
2023-04-30T22:11:29.614Z,7.30
2023-04-30T22:14:32.716Z,6.57
2023-04-30T22:17:37.225Z,6.70
2023-04-30T22:20:40.366Z,6.30
2023-04-30T22:23:43.513Z,5.83
2023-04-30T22:26:46.657Z,6.93
2023-04-30T22:29:50.610Z,6.37
2023-04-30T22:32:58.483Z,6.80
2023-04-30T22:36:01.659Z,6.43
2023-04-30T22:39:05.077Z,6.50
2023-04-30T22:42:09.598Z,7.00
2023-04-30T22:45:13.343Z,6.27
2023-04-30T22:48:18.761Z,7.33
2023-04-30T22:51:22.314Z,6.50
2023-04-30T22:54:25.538Z,7.40
2023-04-30T22:57:28.719Z,6.57
2023-04-30T23:00:31.836Z,6.13
2023-04-30T23:03:36.972Z,6.40
2023-04-30T23:06:40.173Z,6.20
2023-04-30T23:09:45.188Z,7.37
2023-04-30T23:12:48.307Z,6.13
2023-04-30T23:15:51.454Z,6.77
2023-04-30T23:18:56.636Z,7.17
2023-04-30T23:21:59.731Z,7.07
2023-04-30T23:25:02.886Z,6.60
2023-04-30T23:28:06.130Z,6.47
2023-04-30T23:31:10.400Z,7.00
2023-04-30T23:34:14.823Z,6.63
2023-04-30T23:37:17.955Z,5.97
2023-04-30T23:40:21.061Z,6.47
2023-04-30T23:43:25.311Z,6.80
2023-04-30T23:46:28.644Z,6.20
2023-04-30T23:49:33.197Z,6.50
2023-04-30T23:52:36.845Z,6.77
2023-04-30T23:55:42.231Z,6.37
2023-04-30T23:58:45.348Z,6.50
